Time;durP1;ratioP1;P1;durP2;ratioP2;P2;SDS_P1;SDS_P2;PMS_P1;PMS_P2;Temp;Humidity;BMP_temperature;BMP_pressure;BME280_temperature;BME280_humidity;BME280_pressure;Samples;Min_cycle;Max_cycle;Signal;HPM_P1;HPM_P2
2023/09/17 00:01:13;;;;;;;19.55;11.52;;;14.60;99.90;;;;;;5035788;28;20021;-77
2023/09/17 00:03:39;;;;;;;16.85;12.75;;;14.60;99.90;;;;;;5034811;28;20029;-77
2023/09/17 00:06:06;;;;;;;17.70;12.52;;;14.50;99.90;;;;;;5047838;28;20074;-77
2023/09/17 00:08:31;;;;;;;18.60;12.10;;;14.50;99.90;;;;;;5050796;28;20037;-77
2023/09/17 00:10:57;;;;;;;15.32;11.48;;;14.60;99.90;;;;;;5042840;28;20029;-77
2023/09/17 00:13:23;;;;;;;17.77;11.75;;;14.60;99.90;;;;;;5019577;28;20029;-77
2023/09/17 00:15:49;;;;;;;17.80;11.77;;;14.50;99.90;;;;;;5032480;28;20017;-77
2023/09/17 00:18:15;;;;;;;20.70;13.75;;;14.60;99.90;;;;;;5032193;28;20033;-71
2023/09/17 00:20:41;;;;;;;20.13;13.35;;;14.60;99.90;;;;;;5031041;28;20064;-77
2023/09/17 00:23:07;;;;;;;19.27;11.77;;;14.60;99.90;;;;;;5032469;28;20041;-71
2023/09/17 00:25:32;;;;;;;19.48;12.50;;;14.60;99.90;;;;;;5051774;28;20479;-77
2023/09/17 00:27:58;;;;;;;18.02;12.20;;;14.60;99.90;;;;;;5036526;28;20497;-77
2023/09/17 00:30:24;;;;;;;18.88;12.80;;;14.60;99.90;;;;;;5031980;28;20379;-77
2023/09/17 00:32:50;;;;;;;16.35;12.30;;;14.60;99.90;;;;;;5023175;28;20026;-77
2023/09/17 00:35:15;;;;;;;20.92;12.48;;;14.60;99.90;;;;;;5032071;28;20021;-71
2023/09/17 00:37:42;;;;;;;17.25;11.52;;;14.50;99.90;;;;;;5031861;28;20069;-71
2023/09/17 00:40:10;;;;;;;18.75;12.38;;;14.60;99.90;;;;;;5031911;28;20096;-71
2023/09/17 00:42:36;;;;;;;18.52;12.18;;;14.50;99.90;;;;;;5030626;28;20591;-77
2023/09/17 00:45:02;;;;;;;18.83;12.50;;;14.50;99.90;;;;;;5031982;28;20037;-71
2023/09/17 00:47:29;;;;;;;16.10;11.82;;;14.50;99.90;;;;;;5031593;28;20038;-77
2023/09/17 00:49:55;;;;;;;17.40;12.02;;;14.60;99.90;;;;;;5031967;28;20017;-77
2023/09/17 00:52:21;;;;;;;18.45;12.50;;;14.50;99.90;;;;;;5031561;28;20587;-77
2023/09/17 00:54:49;;;;;;;20.45;13.18;;;14.60;99.90;;;;;;5031948;28;20130;-77
2023/09/17 00:57:16;;;;;;;18.30;11.52;;;14.60;99.90;;;;;;5044543;28;20728;-72
2023/09/17 00:59:47;;;;;;;17.75;11.90;;;14.60;99.90;;;;;;5030864;28;20037;-71
2023/09/17 01:02:18;;;;;;;18.90;13.15;;;14.60;99.90;;;;;;5029639;28;20112;-71
2023/09/17 01:04:49;;;;;;;18.15;12.30;;;14.70;99.90;;;;;;5030334;28;20021;-71
2023/09/17 01:07:16;;;;;;;16.48;11.77;;;14.70;99.90;;;;;;5029964;28;20057;-72
2023/09/17 01:09:42;;;;;;;18.13;11.88;;;14.70;99.90;;;;;;5031486;28;20029;-71
2023/09/17 01:12:08;;;;;;;19.48;12.57;;;14.70;99.90;;;;;;5027931;28;20017;-71
2023/09/17 01:14:34;;;;;;;19.42;12.90;;;14.80;99.90;;;;;;5023705;28;20025;-71
2023/09/17 01:17:04;;;;;;;17.20;12.02;;;14.80;99.90;;;;;;5032650;28;20021;-77
2023/09/17 01:19:32;;;;;;;16.70;12.15;;;14.80;99.90;;;;;;5031455;28;20025;-77
2023/09/17 01:22:16;;;;;;;18.67;11.65;;;14.80;99.90;;;;;;5036945;28;20014;-77
2023/09/17 01:25:14;;;;;;;15.98;11.48;;;14.80;99.90;;;;;;5048959;28;20041;-71
2023/09/17 01:27:40;;;;;;;16.10;11.18;;;14.70;99.90;;;;;;5031218;28;20041;-77
2023/09/17 01:30:15;;;;;;;17.30;12.30;;;14.70;99.90;;;;;;5026161;28;20403;-71
2023/09/17 01:32:42;;;;;;;17.70;10.65;;;14.80;99.90;;;;;;5014409;28;20068;-71
2023/09/17 01:35:13;;;;;;;16.80;10.90;;;14.70;99.90;;;;;;5017325;28;20046;-71
2023/09/17 01:37:45;;;;;;;14.38;10.20;;;14.80;99.90;;;;;;5012114;28;20052;-71
2023/09/17 01:40:12;;;;;;;18.23;12.68;;;14.70;99.90;;;;;;5021189;28;20049;-77
2023/09/17 01:42:40;;;;;;;14.65;11.85;;;14.70;99.90;;;;;;5030711;28;20025;-77
2023/09/17 01:45:09;;;;;;;16.58;10.77;;;14.80;99.90;;;;;;5020943;28;20021;-76
2023/09/17 01:47:35;;;;;;;18.20;11.98;;;14.70;99.90;;;;;;5018095;28;20078;-77
2023/09/17 01:50:04;;;;;;;19.98;12.48;;;14.70;99.90;;;;;;5031064;28;20030;-71
2023/09/17 01:52:32;;;;;;;20.65;11.52;;;14.70;99.90;;;;;;5028675;28;20024;-77
2023/09/17 01:55:02;;;;;;;15.25;11.88;;;14.70;99.90;;;;;;5026422;28;20030;-77
2023/09/17 01:57:28;;;;;;;18.73;12.05;;;14.60;99.90;;;;;;5029466;28;20104;-77
2023/09/17 01:59:53;;;;;;;16.52;12.23;;;14.60;99.90;;;;;;5030975;28;20124;-77
2023/09/17 02:02:19;;;;;;;12.98;9.95;;;14.60;99.90;;;;;;5030734;28;20026;-71
2023/09/17 02:04:46;;;;;;;17.52;12.38;;;14.50;99.90;;;;;;5018018;28;20450;-71
2023/09/17 02:07:12;;;;;;;15.82;10.50;;;14.40;99.90;;;;;;5029397;28;20026;-72
2023/09/17 02:09:38;;;;;;;16.52;10.25;;;14.30;99.90;;;;;;5029478;28;20037;-71
2023/09/17 02:12:04;;;;;;;15.32;10.45;;;14.30;99.90;;;;;;5029393;28;20025;-77
2023/09/17 02:14:29;;;;;;;14.32;10.15;;;14.20;99.90;;;;;;5030555;28;20365;-71
2023/09/17 02:16:55;;;;;;;15.98;10.40;;;14.10;99.90;;;;;;5030501;28;20025;-77
2023/09/17 02:19:21;;;;;;;13.88;10.20;;;14.10;99.90;;;;;;5030561;28;20471;-77
2023/09/17 02:21:46;;;;;;;15.60;10.75;;;14.00;99.90;;;;;;5030417;28;20471;-77
2023/09/17 02:24:12;;;;;;;16.55;12.20;;;14.00;99.90;;;;;;5030733;28;20030;-77
2023/09/17 02:26:38;;;;;;;16.67;12.43;;;13.90;99.90;;;;;;5030596;28;20082;-71
2023/09/17 02:29:05;;;;;;;15.68;11.52;;;13.90;99.90;;;;;;5029755;28;20420;-71
2023/09/17 02:31:31;;;;;;;19.35;11.82;;;13.90;99.90;;;;;;5028045;28;20070;-77
2023/09/17 02:33:57;;;;;;;16.92;11.52;;;13.80;99.90;;;;;;5029912;28;20416;-77
2023/09/17 02:36:23;;;;;;;16.35;12.25;;;13.80;99.90;;;;;;5030017;28;20022;-77
2023/09/17 02:38:48;;;;;;;15.75;11.05;;;13.80;99.90;;;;;;5018329;28;20136;-77
2023/09/17 02:41:14;;;;;;;15.80;11.15;;;13.70;99.90;;;;;;5037885;28;20115;-71
2023/09/17 02:43:40;;;;;;;15.27;11.73;;;13.70;99.90;;;;;;5042772;28;20032;-71
2023/09/17 02:46:06;;;;;;;15.43;11.48;;;13.60;99.90;;;;;;5028904;28;20056;-77
2023/09/17 02:48:32;;;;;;;15.93;11.45;;;13.60;99.90;;;;;;5044030;28;20032;-77
2023/09/17 02:50:58;;;;;;;19.00;10.95;;;13.50;99.90;;;;;;5041382;28;20097;-71
2023/09/17 02:53:24;;;;;;;17.40;11.63;;;13.50;99.90;;;;;;5029783;28;20070;-71
2023/09/17 02:55:49;;;;;;;16.08;10.85;;;13.50;99.90;;;;;;5030213;28;20025;-71
2023/09/17 02:58:15;;;;;;;18.80;11.80;;;13.40;99.90;;;;;;5031339;28;20025;-71
2023/09/17 03:00:43;;;;;;;22.17;12.75;;;13.40;99.90;;;;;;5049156;28;20021;-76
2023/09/17 03:03:09;;;;;;;18.50;11.60;;;13.40;99.90;;;;;;5048196;28;20104;-76
2023/09/17 03:05:34;;;;;;;17.02;12.05;;;13.40;99.90;;;;;;5044892;28;20104;-77
2023/09/17 03:08:00;;;;;;;20.05;12.95;;;13.30;99.90;;;;;;5042082;28;20445;-76
2023/09/17 03:10:26;;;;;;;22.38;13.25;;;13.30;99.90;;;;;;5048478;28;20053;-76
2023/09/17 03:12:52;;;;;;;17.63;12.55;;;13.30;99.90;;;;;;5033289;28;20071;-70
2023/09/17 03:15:18;;;;;;;19.08;12.95;;;13.20;99.90;;;;;;5048106;28;20359;-77
2023/09/17 03:17:43;;;;;;;17.98;13.38;;;13.20;99.90;;;;;;5043638;28;20213;-76
2023/09/17 03:20:22;;;;;;;21.80;13.07;;;13.20;99.90;;;;;;5037284;28;20017;-76
2023/09/17 03:22:48;;;;;;;22.80;14.00;;;13.10;99.90;;;;;;5031885;28;20041;-77
2023/09/17 03:25:14;;;;;;;19.48;12.90;;;13.10;99.90;;;;;;5039265;28;20021;-71
2023/09/17 03:27:43;;;;;;;26.20;13.93;;;13.10;99.90;;;;;;5038349;28;20398;-71
2023/09/17 03:30:10;;;;;;;18.42;12.50;;;13.00;99.90;;;;;;5040700;28;20014;-76
2023/09/17 03:32:36;;;;;;;19.20;12.10;;;13.00;99.90;;;;;;5029217;28;20039;-76
2023/09/17 03:35:03;;;;;;;18.73;13.13;;;13.10;99.90;;;;;;5039394;28;20026;-76
2023/09/17 03:37:29;;;;;;;19.63;13.13;;;13.10;99.90;;;;;;5039252;28;20392;-71
2023/09/17 03:40:12;;;;;;;18.98;12.45;;;13.10;99.90;;;;;;5019454;28;20022;-77
2023/09/17 03:42:42;;;;;;;20.20;13.10;;;13.10;99.90;;;;;;5020010;28;20040;-71
2023/09/17 03:45:10;;;;;;;17.27;11.85;;;13.10;99.90;;;;;;5025890;28;20016;-77
2023/09/17 03:47:37;;;;;;;21.83;13.73;;;13.20;99.90;;;;;;5032866;28;20033;-77
2023/09/17 03:50:08;;;;;;;18.02;12.27;;;13.20;99.90;;;;;;5033776;28;20483;-76
2023/09/17 03:52:36;;;;;;;17.35;11.90;;;13.20;99.90;;;;;;5052332;28;20113;-70
2023/09/17 03:55:05;;;;;;;17.63;11.77;;;13.20;99.90;;;;;;5036565;28;20029;-71
2023/09/17 03:57:34;;;;;;;15.35;11.13;;;13.20;99.90;;;;;;5041904;28;20028;-77
2023/09/17 03:59:59;;;;;;;18.70;12.93;;;13.30;99.90;;;;;;5035887;28;20029;-76
2023/09/17 04:02:25;;;;;;;20.38;12.02;;;13.30;99.90;;;;;;5032563;28;20029;-77
2023/09/17 04:04:51;;;;;;;14.57;10.95;;;13.20;99.90;;;;;;5048360;28;20009;-76
2023/09/17 04:07:17;;;;;;;16.02;11.48;;;13.20;99.90;;;;;;5052238;28;20036;-71
2023/09/17 04:09:42;;;;;;;18.40;11.63;;;13.20;99.90;;;;;;5034309;28;20406;-71
2023/09/17 04:12:08;;;;;;;16.77;11.77;;;13.30;99.90;;;;;;5030984;28;20030;-71
2023/09/17 04:14:34;;;;;;;18.90;12.52;;;13.20;99.90;;;;;;5031201;28;20469;-76
2023/09/17 04:17:04;;;;;;;17.20;11.30;;;13.20;99.90;;;;;;5032710;28;20017;-71
2023/09/17 04:19:31;;;;;;;18.10;12.15;;;13.30;99.90;;;;;;5031200;28;20018;-77
2023/09/17 04:21:57;;;;;;;21.45;13.20;;;13.30;99.90;;;;;;5031675;28;20025;-77
2023/09/17 04:24:25;;;;;;;15.85;12.15;;;13.30;99.90;;;;;;5031215;28;20035;-76
2023/09/17 04:26:52;;;;;;;22.27;14.02;;;13.30;99.90;;;;;;5032158;28;20114;-71
2023/09/17 04:29:19;;;;;;;20.55;14.65;;;13.30;99.90;;;;;;5032058;28;20033;-76
2023/09/17 04:31:46;;;;;;;21.17;14.93;;;13.40;99.90;;;;;;5024550;28;20042;-71
2023/09/17 04:34:13;;;;;;;19.25;13.60;;;13.40;99.90;;;;;;5033015;28;20025;-76
2023/09/17 04:36:38;;;;;;;20.08;13.90;;;13.40;99.90;;;;;;5032121;28;20014;-71
2023/09/17 04:39:04;;;;;;;24.58;15.05;;;13.40;99.90;;;;;;5020211;28;20050;-71
2023/09/17 04:41:30;;;;;;;21.55;14.70;;;13.40;99.90;;;;;;5032086;28;20026;-76
2023/09/17 04:43:55;;;;;;;23.05;14.77;;;13.50;99.90;;;;;;5032018;28;20010;-76
2023/09/17 04:46:21;;;;;;;21.05;14.73;;;13.50;99.90;;;;;;5027366;28;20042;-76
2023/09/17 04:48:47;;;;;;;25.33;15.98;;;13.60;99.90;;;;;;5036145;28;20104;-77
2023/09/17 04:51:16;;;;;;;24.90;16.27;;;13.60;99.90;;;;;;5039621;28;20100;-77
2023/09/17 04:53:42;;;;;;;22.77;15.85;;;13.70;99.90;;;;;;5038346;28;20017;-76
2023/09/17 04:56:08;;;;;;;21.52;14.60;;;13.70;99.90;;;;;;5038277;28;20047;-76
2023/09/17 04:58:34;;;;;;;21.23;15.63;;;13.70;99.90;;;;;;5031648;28;20021;-77
2023/09/17 05:01:00;;;;;;;19.70;13.32;;;13.80;99.90;;;;;;5031640;28;20018;-71
2023/09/17 05:03:25;;;;;;;20.55;14.40;;;13.80;99.90;;;;;;5031634;28;20022;-71
2023/09/17 05:05:51;;;;;;;19.33;14.52;;;13.90;99.90;;;;;;5036497;28;20030;-77
2023/09/17 05:08:18;;;;;;;18.05;13.15;;;13.90;99.90;;;;;;5041027;28;20013;-71
2023/09/17 05:10:44;;;;;;;20.73;15.07;;;14.00;99.90;;;;;;5033193;28;20022;-71
2023/09/17 05:13:09;;;;;;;16.13;11.73;;;14.00;99.90;;;;;;5036105;28;20018;-77
2023/09/17 05:15:36;;;;;;;21.58;12.00;;;14.00;99.90;;;;;;5031604;28;20025;-77
2023/09/17 05:18:09;;;;;;;20.35;13.73;;;14.10;99.90;;;;;;5038066;28;20494;-71
2023/09/17 05:20:35;;;;;;;22.55;15.18;;;14.10;99.90;;;;;;5030016;28;20018;-71
2023/09/17 05:23:01;;;;;;;19.88;14.77;;;14.20;99.90;;;;;;5037466;28;20025;-76
2023/09/17 05:25:27;;;;;;;23.00;14.90;;;14.30;99.90;;;;;;5031879;28;20467;-77
2023/09/17 05:27:52;;;;;;;19.55;13.50;;;14.40;99.90;;;;;;5030010;28;20026;-77
2023/09/17 05:30:18;;;;;;;22.05;13.98;;;14.40;99.90;;;;;;5031216;28;20375;-71
2023/09/17 05:32:43;;;;;;;18.83;13.82;;;14.40;99.90;;;;;;5031176;28;20070;-71
2023/09/17 05:35:09;;;;;;;15.20;11.57;;;14.50;99.90;;;;;;5038157;28;20017;-71
2023/09/17 05:37:35;;;;;;;23.40;14.52;;;14.60;99.90;;;;;;5022422;28;20132;-77
2023/09/17 05:40:01;;;;;;;17.48;13.02;;;14.60;99.90;;;;;;5031406;28;20025;-71
2023/09/17 05:42:26;;;;;;;20.50;14.35;;;14.70;99.90;;;;;;5035764;28;20479;-71
2023/09/17 05:44:52;;;;;;;18.98;13.70;;;14.80;99.90;;;;;;5030632;28;20037;-71
2023/09/17 05:47:18;;;;;;;22.75;13.25;;;14.80;99.90;;;;;;5030649;28;20033;-76
2023/09/17 05:49:44;;;;;;;23.05;14.60;;;14.90;99.90;;;;;;5030391;28;20017;-77
2023/09/17 05:52:09;;;;;;;16.90;14.15;;;15.00;99.90;;;;;;5032997;28;20555;-77
2023/09/17 05:54:35;;;;;;;20.65;14.88;;;15.10;99.90;;;;;;5031690;28;20018;-77
2023/09/17 05:57:00;;;;;;;20.42;15.95;;;15.10;99.90;;;;;;5032693;28;20031;-71
2023/09/17 05:59:26;;;;;;;17.90;13.30;;;15.20;99.90;;;;;;5030809;28;20116;-77
2023/09/17 06:01:52;;;;;;;17.13;13.10;;;15.30;99.90;;;;;;5027617;28;20104;-77
2023/09/17 06:04:17;;;;;;;17.42;13.27;;;15.40;99.90;;;;;;5031220;28;20032;-71
2023/09/17 06:06:43;;;;;;;17.35;12.45;;;15.50;99.90;;;;;;5033118;28;20504;-77
2023/09/17 06:09:09;;;;;;;16.77;12.52;;;15.50;99.90;;;;;;5030607;28;20014;-77
2023/09/17 06:11:35;;;;;;;14.75;13.00;;;15.60;99.90;;;;;;5030007;28;20464;-71
2023/09/17 06:14:00;;;;;;;16.85;12.05;;;15.70;99.90;;;;;;5032206;28;20104;-77
2023/09/17 06:16:26;;;;;;;17.23;12.10;;;15.80;99.90;;;;;;5029680;28;20447;-71
2023/09/17 06:18:52;;;;;;;16.02;12.32;;;16.00;99.90;;;;;;5031009;28;20028;-77
2023/09/17 06:21:17;;;;;;;13.32;10.77;;;16.20;99.90;;;;;;5030132;28;20044;-71
2023/09/17 06:23:43;;;;;;;11.10;9.45;;;16.40;99.90;;;;;;5030360;28;20025;-72
2023/09/17 06:26:09;;;;;;;10.15;9.05;;;16.60;99.90;;;;;;5036596;28;20079;-71
2023/09/17 06:28:34;;;;;;;11.93;9.52;;;16.80;99.90;;;;;;5034930;28;20437;-77
2023/09/17 06:31:01;;;;;;;9.38;8.38;;;17.10;99.90;;;;;;5028930;28;20506;-77
2023/09/17 06:33:28;;;;;;;11.32;8.65;;;17.40;99.90;;;;;;5033205;28;20028;-77
2023/09/17 06:35:54;;;;;;;11.82;7.80;;;17.80;99.90;;;;;;5027298;28;20021;-77
2023/09/17 06:38:19;;;;;;;10.68;8.63;;;18.00;99.90;;;;;;5032945;28;20399;-71
2023/09/17 06:40:45;;;;;;;9.85;8.85;;;18.20;99.90;;;;;;5030536;28;20096;-72
2023/09/17 06:43:12;;;;;;;8.57;7.50;;;18.50;99.90;;;;;;5029921;28;20040;-72
2023/09/17 06:45:38;;;;;;;7.82;7.03;;;18.80;99.90;;;;;;5029674;28;20093;-77
2023/09/17 06:48:04;;;;;;;10.63;7.28;;;19.00;99.90;;;;;;5030194;28;20100;-72
2023/09/17 06:50:30;;;;;;;7.18;6.47;;;19.20;99.90;;;;;;5030022;28;20538;-72
2023/09/17 06:52:55;;;;;;;7.00;6.35;;;19.20;99.90;;;;;;5027964;28;20105;-77
2023/09/17 06:55:21;;;;;;;6.85;6.03;;;19.40;99.90;;;;;;5029865;28;20101;-77
2023/09/17 06:57:47;;;;;;;7.40;6.53;;;19.60;99.90;;;;;;5032641;28;20029;-72
2023/09/17 07:00:14;;;;;;;7.03;5.63;;;19.80;99.90;;;;;;5030228;28;20036;-72
2023/09/17 07:02:39;;;;;;;9.15;5.80;;;20.00;99.90;;;;;;5029200;28;20017;-72
2023/09/17 07:05:07;;;;;;;7.22;5.55;;;20.10;99.90;;;;;;5030211;28;20031;-71
2023/09/17 07:07:33;;;;;;;6.70;6.00;;;20.30;99.90;;;;;;5028719;28;20571;-72
2023/09/17 07:10:00;;;;;;;6.22;5.50;;;20.40;99.90;;;;;;5032017;28;20026;-77
2023/09/17 07:12:26;;;;;;;7.50;5.55;;;20.50;99.90;;;;;;5034321;28;20066;-77
2023/09/17 07:14:51;;;;;;;6.00;5.50;;;20.70;99.90;;;;;;5027336;28;20025;-71
2023/09/17 07:17:17;;;;;;;7.50;5.80;;;20.80;99.90;;;;;;5030535;28;20021;-72
2023/09/17 07:19:43;;;;;;;5.90;5.30;;;20.90;99.90;;;;;;5028866;28;20042;-72
2023/09/17 07:22:11;;;;;;;5.75;5.20;;;21.00;99.90;;;;;;5030186;28;20390;-72
2023/09/17 07:24:37;;;;;;;5.88;4.97;;;21.20;99.90;;;;;;5032486;28;20452;-78
2023/09/17 07:27:03;;;;;;;5.43;4.93;;;21.10;99.90;;;;;;5028785;28;20124;-78
2023/09/17 07:29:29;;;;;;;6.30;4.93;;;21.30;99.90;;;;;;5027237;28;20026;-78
2023/09/17 07:31:55;;;;;;;5.20;4.63;;;21.40;99.90;;;;;;5028906;28;20539;-78
2023/09/17 07:34:20;;;;;;;6.18;4.88;;;21.40;99.90;;;;;;5027402;28;20029;-77
2023/09/17 07:36:46;;;;;;;5.50;4.65;;;21.50;99.90;;;;;;5028991;28;20029;-72
2023/09/17 07:39:12;;;;;;;6.22;4.75;;;21.60;99.90;;;;;;4985920;28;1195865;-72
2023/09/17 07:41:38;;;;;;;5.25;4.75;;;21.80;99.80;;;;;;5023298;28;20079;-71
2023/09/17 07:44:03;;;;;;;5.15;4.57;;;21.90;97.60;;;;;;5018388;28;20104;-72
2023/09/17 07:46:29;;;;;;;4.80;4.40;;;22.00;94.60;;;;;;5024589;28;20034;-72
2023/09/17 07:48:55;;;;;;;4.30;3.90;;;22.20;94.80;;;;;;5018827;28;20018;-72
2023/09/17 07:51:20;;;;;;;5.60;4.35;;;22.30;91.70;;;;;;5021296;28;20030;-72
2023/09/17 07:53:46;;;;;;;5.45;3.72;;;22.40;89.90;;;;;;5027953;28;20026;-72
2023/09/17 07:56:12;;;;;;;6.90;3.90;;;22.40;84.40;;;;;;5015263;28;20014;-72
2023/09/17 07:58:38;;;;;;;7.07;4.10;;;22.40;86.10;;;;;;5032352;28;20071;-75
2023/09/17 08:01:06;;;;;;;5.55;3.90;;;22.40;85.40;;;;;;5035843;28;20021;-72
2023/09/17 08:03:32;;;;;;;4.85;3.97;;;22.70;86.40;;;;;;5036428;28;20021;-78
2023/09/17 08:05:57;;;;;;;4.63;3.85;;;22.80;85.90;;;;;;5028926;28;20082;-78
2023/09/17 08:08:24;;;;;;;6.47;4.18;;;22.90;85.20;;;;;;5028856;28;20810;-73
2023/09/17 08:10:50;;;;;;;5.82;5.07;;;22.70;80.00;;;;;;5033326;28;20029;-78
2023/09/17 08:13:16;;;;;;;7.25;4.40;;;22.70;82.00;;;;;;5030520;28;20062;-72
2023/09/17 08:15:42;;;;;;;5.40;4.85;;;22.70;83.80;;;;;;5033108;28;20032;-78
2023/09/17 08:18:07;;;;;;;6.85;4.68;;;22.70;81.40;;;;;;5030619;28;20022;-70
2023/09/17 08:20:33;;;;;;;7.80;5.10;;;22.80;81.60;;;;;;5036131;28;20021;-72
2023/09/17 08:22:58;;;;;;;8.50;5.57;;;22.80;80.10;;;;;;5032300;28;20360;-73
2023/09/17 08:25:26;;;;;;;8.10;4.70;;;22.90;83.70;;;;;;5034669;28;20086;-72
2023/09/17 08:27:53;;;;;;;8.13;4.88;;;22.90;81.90;;;;;;5030868;28;20029;-72
2023/09/17 08:30:20;;;;;;;7.93;5.03;;;22.80;80.40;;;;;;5030738;28;20104;-72
2023/09/17 08:32:45;;;;;;;6.10;4.43;;;22.80;83.10;;;;;;5031449;28;20017;-72
2023/09/17 08:35:13;;;;;;;3.65;3.30;;;22.80;82.70;;;;;;5035042;28;20023;-78
2023/09/17 08:37:39;;;;;;;3.50;3.20;;;22.80;82.70;;;;;;5033611;28;20041;-73
2023/09/17 08:40:13;;;;;;;4.05;3.30;;;22.90;80.20;;;;;;5030023;28;20022;-78
2023/09/17 08:42:41;;;;;;;3.60;3.30;;;23.10;80.60;;;;;;5030115;28;20506;-79
2023/09/17 08:45:09;;;;;;;3.92;3.38;;;23.30;81.40;;;;;;5030937;28;20509;-73
2023/09/17 08:47:35;;;;;;;3.17;2.88;;;23.40;79.00;;;;;;5032152;28;20086;-73
2023/09/17 08:50:01;;;;;;;4.40;3.15;;;23.70;78.00;;;;;;5026791;28;20045;-73
2023/09/17 08:52:32;;;;;;;3.50;3.00;;;23.70;75.00;;;;;;5033627;28;20060;-73
2023/09/17 08:54:58;;;;;;;3.92;2.85;;;23.90;75.30;;;;;;5032087;28;20010;-71
2023/09/17 08:57:26;;;;;;;3.10;2.80;;;23.90;74.80;;;;;;5031106;28;20029;-71
2023/09/17 09:00:08;;;;;;;3.20;2.85;;;23.80;74.40;;;;;;5036333;28;20090;-77
2023/09/17 09:02:56;;;;;;;4.22;3.08;;;23.50;74.60;;;;;;5034253;28;20051;-72
2023/09/17 09:05:27;;;;;;;4.03;3.42;;;23.50;75.40;;;;;;5041392;27;20090;-79
2023/09/17 09:07:55;;;;;;;4.18;3.65;;;23.30;74.90;;;;;;5028209;28;20030;-79
2023/09/17 09:10:22;;;;;;;3.42;3.13;;;23.30;77.60;;;;;;5032693;28;20029;-79
2023/09/17 09:12:49;;;;;;;3.45;3.05;;;23.30;78.20;;;;;;5030319;28;20013;-79
2023/09/17 09:15:15;;;;;;;2.88;2.35;;;23.30;77.40;;;;;;5029227;28;20047;-79
2023/09/17 09:17:41;;;;;;;3.03;2.70;;;23.40;77.10;;;;;;5029206;28;20013;-79
2023/09/17 09:20:09;;;;;;;3.33;2.90;;;23.50;75.50;;;;;;5030030;28;20546;-73
2023/09/17 09:22:36;;;;;;;2.80;2.60;;;23.60;72.40;;;;;;5033588;28;20033;-73
2023/09/17 09:25:03;;;;;;;4.30;2.38;;;23.70;73.20;;;;;;5040048;28;20028;-79
2023/09/17 09:27:28;;;;;;;4.32;2.45;;;23.90;71.00;;;;;;5035943;28;20103;-74
2023/09/17 09:29:54;;;;;;;2.70;2.50;;;24.10;69.70;;;;;;5035200;28;20018;-78
2023/09/17 09:32:21;;;;;;;3.33;2.83;;;24.00;67.30;;;;;;5028937;28;20033;-72
2023/09/17 09:34:47;;;;;;;2.70;2.30;;;23.80;68.80;;;;;;5026669;28;20029;-79
2023/09/17 09:37:13;;;;;;;7.03;2.58;;;23.70;70.10;;;;;;5024297;28;20045;-72
2023/09/17 09:39:42;;;;;;;2.47;2.28;;;23.70;69.60;;;;;;5018961;28;20026;-79
2023/09/17 09:42:11;;;;;;;3.42;2.50;;;23.60;69.00;;;;;;5022472;28;20022;-79
2023/09/17 09:44:37;;;;;;;3.30;2.35;;;23.70;71.40;;;;;;5030624;28;20487;-72
2023/09/17 09:47:04;;;;;;;3.25;3.00;;;23.60;70.60;;;;;;5022520;28;20061;-78
2023/09/17 09:49:41;;;;;;;3.33;3.03;;;23.70;70.50;;;;;;5026445;28;20018;-78
2023/09/17 09:52:07;;;;;;;2.55;2.35;;;23.80;71.50;;;;;;5026158;28;20045;-78
2023/09/17 09:54:35;;;;;;;3.25;2.95;;;24.10;70.70;;;;;;5022814;28;20034;-78
2023/09/17 09:57:03;;;;;;;4.45;3.22;;;24.30;69.20;;;;;;5025759;28;20056;-78
2023/09/17 09:59:29;;;;;;;3.30;2.53;;;24.50;68.10;;;;;;5027960;28;20037;-78
2023/09/17 10:01:55;;;;;;;2.78;2.58;;;24.80;65.90;;;;;;5039823;28;20032;-78
2023/09/17 10:04:20;;;;;;;3.83;2.70;;;24.90;65.90;;;;;;5034478;28;20034;-72
2023/09/17 10:06:46;;;;;;;3.08;2.65;;;25.00;64.80;;;;;;5030598;28;20086;-78
2023/09/17 10:09:14;;;;;;;2.95;2.28;;;24.70;62.60;;;;;;5029334;28;20432;-78
2023/09/17 10:11:40;;;;;;;3.60;2.38;;;24.40;64.00;;;;;;5028440;28;20558;-74
2023/09/17 10:14:06;;;;;;;2.60;2.40;;;24.30;65.60;;;;;;5026414;28;20022;-72
2023/09/17 10:16:34;;;;;;;2.47;2.28;;;24.40;65.90;;;;;;5033251;28;20025;-79
2023/09/17 10:19:00;;;;;;;4.22;2.80;;;24.40;66.20;;;;;;5030466;28;20479;-73
2023/09/17 10:21:27;;;;;;;3.10;2.83;;;24.30;66.50;;;;;;5030838;28;20025;-77
2023/09/17 10:23:56;;;;;;;2.83;2.63;;;24.30;67.50;;;;;;5030138;28;20080;-78
2023/09/17 10:26:23;;;;;;;2.70;2.50;;;24.50;68.20;;;;;;5028756;28;20041;-79
2023/09/17 10:28:50;;;;;;;3.47;2.40;;;24.70;67.60;;;;;;5034752;28;20028;-78
2023/09/17 10:31:18;;;;;;;3.30;3.00;;;24.70;68.20;;;;;;5043691;28;20029;-78
2023/09/17 10:33:47;;;;;;;2.72;2.35;;;24.70;67.70;;;;;;5029465;28;20021;-78
2023/09/17 10:36:13;;;;;;;2.92;2.60;;;24.90;66.20;;;;;;5039783;28;20025;-72
2023/09/17 10:38:41;;;;;;;4.70;2.53;;;25.00;64.50;;;;;;5014222;28;20056;-72
2023/09/17 10:41:08;;;;;;;2.90;2.60;;;25.00;64.70;;;;;;5029016;28;20398;-78
2023/09/17 10:43:38;;;;;;;4.00;2.45;;;25.10;64.10;;;;;;5031359;28;20039;-79
2023/09/17 10:46:08;;;;;;;2.70;2.50;;;25.20;64.60;;;;;;5023733;28;20048;-79
2023/09/17 10:48:34;;;;;;;3.17;2.88;;;25.30;65.20;;;;;;5035373;28;20022;-72
2023/09/17 10:51:00;;;;;;;3.05;2.85;;;25.00;66.00;;;;;;5033351;28;20103;-79
2023/09/17 10:53:27;;;;;;;3.25;2.90;;;24.80;67.20;;;;;;5029424;28;20030;-72
2023/09/17 10:56:10;;;;;;;3.42;3.13;;;24.50;67.90;;;;;;5021933;28;20029;-77
2023/09/17 10:58:39;;;;;;;3.38;3.05;;;24.10;68.90;;;;;;5029982;28;20021;-79
2023/09/17 11:01:08;;;;;;;3.03;2.83;;;24.10;70.90;;;;;;5042587;28;20372;-78
2023/09/17 11:03:37;;;;;;;3.28;3.08;;;24.10;73.30;;;;;;5037529;28;20078;-72
2023/09/17 11:06:13;;;;;;;5.43;3.50;;;24.20;71.70;;;;;;5028307;28;20041;-72
2023/09/17 11:08:45;;;;;;;3.42;3.13;;;24.50;72.70;;;;;;5024151;28;20110;-72
2023/09/17 11:11:14;;;;;;;3.63;3.33;;;24.40;71.90;;;;;;5034835;28;20014;-78
2023/09/17 11:13:41;;;;;;;3.85;2.92;;;24.20;70.20;;;;;;5031629;28;20025;-79
2023/09/17 11:16:08;;;;;;;4.45;2.95;;;24.10;72.10;;;;;;5032070;28;20037;-72
2023/09/17 11:18:33;;;;;;;3.70;3.45;;;24.10;72.50;;;;;;5029941;28;20126;-78
2023/09/17 11:21:06;;;;;;;4.00;3.60;;;24.20;72.20;;;;;;5035270;28;20037;-72
2023/09/17 11:23:46;;;;;;;3.35;2.92;;;24.10;70.40;;;;;;5034239;28;20025;-72
2023/09/17 11:26:20;;;;;;;3.45;3.08;;;24.00;71.00;;;;;;5031717;28;20026;-78
2023/09/17 11:28:53;;;;;;;3.88;3.25;;;24.00;69.90;;;;;;5026333;28;20022;-78
2023/09/17 11:31:19;;;;;;;2.80;2.53;;;24.00;68.10;;;;;;5016019;28;20052;-78
2023/09/17 11:33:45;;;;;;;4.38;3.30;;;24.00;67.50;;;;;;5025901;28;20475;-78
2023/09/17 11:36:11;;;;;;;2.90;2.60;;;24.30;67.40;;;;;;5032253;28;20047;-72
2023/09/17 11:38:37;;;;;;;3.38;2.90;;;24.30;66.50;;;;;;5018022;28;20485;-78
2023/09/17 11:41:04;;;;;;;2.60;2.40;;;24.50;66.30;;;;;;5029246;28;20045;-78
2023/09/17 11:43:31;;;;;;;5.05;2.45;;;24.50;64.30;;;;;;5028571;28;20033;-78
2023/09/17 11:45:58;;;;;;;2.88;2.63;;;24.50;65.20;;;;;;5029142;28;20078;-79
2023/09/17 11:48:24;;;;;;;2.20;2.10;;;24.60;66.40;;;;;;5030182;28;20051;-78
2023/09/17 11:50:50;;;;;;;3.97;2.63;;;24.60;63.50;;;;;;5032707;28;20036;-72
2023/09/17 11:53:16;;;;;;;2.28;2.17;;;24.90;63.60;;;;;;5026383;28;20033;-72
2023/09/17 11:55:45;;;;;;;3.38;2.53;;;25.10;61.90;;;;;;5031891;28;20045;-73
2023/09/17 11:58:16;;;;;;;5.40;2.70;;;25.40;60.40;;;;;;5028790;28;20029;-79
2023/09/17 12:00:42;;;;;;;2.53;2.05;;;25.40;60.90;;;;;;5033496;28;20161;-80
2023/09/17 12:03:10;;;;;;;2.40;2.10;;;25.30;60.10;;;;;;5033886;28;20386;-79
2023/09/17 12:05:36;;;;;;;2.50;2.28;;;25.40;60.50;;;;;;5047576;28;20527;-80
2023/09/17 12:08:02;;;;;;;2.05;1.92;;;25.30;59.40;;;;;;5041016;28;20038;-80
2023/09/17 12:10:37;;;;;;;3.05;2.40;;;25.30;58.90;;;;;;5041200;28;20062;-79
2023/09/17 12:13:06;;;;;;;3.78;2.30;;;25.10;59.70;;;;;;5031870;28;20024;-79
2023/09/17 12:15:33;;;;;;;2.67;2.47;;;25.00;59.70;;;;;;5028135;28;20120;-78
2023/09/17 12:18:00;;;;;;;2.70;2.30;;;25.00;61.10;;;;;;5024688;28;20049;-80
2023/09/17 12:20:59;;;;;;;2.60;2.40;;;24.80;60.50;;;;;;5037613;28;20052;-72
2023/09/17 12:24:06;;;;;;;2.60;2.40;;;24.80;61.60;;;;;;5035152;28;20028;-72
2023/09/17 12:27:25;;;;;;;2.88;2.17;;;24.90;62.70;;;;;;4996177;28;20037;-72
2023/09/17 12:29:53;;;;;;;2.78;2.58;;;25.00;61.20;;;;;;5000469;28;20080;-73
2023/09/17 12:32:21;;;;;;;2.95;2.55;;;25.20;62.80;;;;;;5025416;28;20032;-72
2023/09/17 12:34:52;;;;;;;2.47;2.03;;;25.30;63.10;;;;;;5040924;28;20021;-72
2023/09/17 12:37:19;;;;;;;3.58;2.50;;;25.30;61.40;;;;;;5033955;28;20569;-79